In Rescue
 
Open Full Screen Window  High Contrast Mode
October 19, 2020 7:45 PM CDT
Weather Information
Wind Direction
  ---
Wind Speed
  00 kt (0 mph)
Wind Gust
  00 kt (0 mph)
Altimeter
30.20 in
Visibility
10 SM
Temperature
-03° C
27° F
Dewpoint
-06° C
21° F
Humidity
80%
1hr Rain Fall
00.00 in.
24hr Rain Fall
00.00 in.
Sky Condition
Overcast @ 5,000 ft
VFR

METAR KORB 200045Z AUTO 00000KT 10SM OVC050 M03/M06 A3020 RMK AO2

FAA Disclaimer: The data displayed is for advisory purposes only and is not to be used for flight planning or operations.